Time;durP1;ratioP1;P1;durP2;ratioP2;P2;SDS_P1;SDS_P2;PMS_P1;PMS_P2;Temp;Humidity;BMP_temperature;BMP_pressure;BME280_temperature;BME280_humidity;BME280_pressure;Samples;Min_cycle;Max_cycle;Signal;HPM_P1;HPM_P2
2020/12/11 00:00:45;;;;;;;35.73;18.37;;;;;;;1.34;94.59;100273.63;1758393;80;21637;-72
2020/12/11 00:03:14;;;;;;;23.03;14.83;;;;;;;1.34;94.63;100268.34;1779499;80;22235;-68
2020/12/11 00:05:43;;;;;;;30.37;17.17;;;;;;;1.39;94.78;100271.28;1779685;80;21150;-71
2020/12/11 00:08:11;;;;;;;23.00;12.37;;;;;;;1.42;94.72;100266.95;1770468;80;21141;-68
2020/12/11 00:10:40;;;;;;;29.27;17.00;;;;;;;1.39;94.23;100260.69;1748465;82;21066;-70
2020/12/11 00:13:08;;;;;;;29.40;18.37;;;;;;;1.34;94.18;100259.89;1748959;80;21616;-71
2020/12/11 00:15:36;;;;;;;29.13;18.70;;;;;;;1.35;94.36;100252.23;1749129;80;21430;-68
2020/12/11 00:18:03;;;;;;;28.43;18.63;;;;;;;1.38;94.37;100260.35;1749108;80;21610;-69
2020/12/11 00:20:31;;;;;;;27.43;18.60;;;;;;;1.37;94.07;100259.52;1763149;80;21185;-68
2020/12/11 00:22:59;;;;;;;29.30;18.53;;;;;;;1.38;94.13;100257.20;1779841;80;21047;-70
2020/12/11 00:25:26;;;;;;;30.20;17.80;;;;;;;1.39;93.95;100262.80;1779325;80;21579;-69
2020/12/11 00:27:54;;;;;;;32.70;16.80;;;;;;;1.37;93.99;100257.37;1778142;80;21203;-68
2020/12/11 00:30:22;;;;;;;35.70;17.23;;;;;;;1.35;93.96;100257.54;1778938;80;21166;-71
2020/12/11 00:32:51;;;;;;;37.90;18.20;;;;;;;1.28;94.10;100259.26;1776184;80;20988;-69
2020/12/11 00:35:18;;;;;;;34.30;18.10;;;;;;;1.26;94.23;100268.70;1766991;80;21202;-69
2020/12/11 00:37:46;;;;;;;41.33;21.20;;;;;;;1.29;94.32;100263.56;1749204;82;21210;-68
2020/12/11 00:40:13;;;;;;;31.67;19.87;;;;;;;1.31;94.33;100262.38;1767037;80;21306;-70
2020/12/11 00:42:41;;;;;;;41.63;22.30;;;;;;;1.35;94.39;100259.36;1759683;80;21597;-69
2020/12/11 00:45:09;;;;;;;35.70;22.00;;;;;;;1.34;94.34;100263.86;1729545;83;21019;-69
2020/12/11 00:47:37;;;;;;;28.80;17.00;;;;;;;1.33;94.42;100248.95;1765302;80;21237;-70
2020/12/11 00:50:05;;;;;;;32.77;19.63;;;;;;;1.33;94.46;100260.87;1770638;80;21152;-70
2020/12/11 00:52:33;;;;;;;38.87;21.43;;;;;;;1.34;94.47;100249.29;1729472;83;21194;-68
2020/12/11 00:55:02;;;;;;;45.03;21.20;;;;;;;1.32;94.40;100256.58;1729503;83;21169;-68
2020/12/11 00:57:29;;;;;;;41.43;17.97;;;;;;;1.31;94.49;100254.42;1725248;83;21617;-70
2020/12/11 00:59:57;;;;;;;36.97;20.13;;;;;;;1.30;94.33;100258.06;1719121;83;21182;-69
2020/12/11 01:02:24;;;;;;;31.73;20.60;;;;;;;1.29;94.31;100251.14;1737664;82;21569;-69
2020/12/11 01:04:53;;;;;;;33.40;17.03;;;;;;;1.28;94.26;100265.38;1757754;81;21220;-70
2020/12/11 01:07:22;;;;;;;30.47;17.93;;;;;;;1.29;94.18;100255.62;1781099;80;21175;-69
2020/12/11 01:09:51;;;;;;;30.40;17.27;;;;;;;1.30;94.13;100253.27;1759573;81;20980;-70
2020/12/11 01:12:18;;;;;;;28.73;16.00;;;;;;;1.31;93.88;100254.92;1768273;80;21434;-70
2020/12/11 01:14:46;;;;;;;25.40;15.60;;;;;;;1.28;93.73;100255.28;1752282;80;21200;-69
2020/12/11 01:17:14;;;;;;;22.60;11.57;;;;;;;1.25;93.42;100245.84;1743330;81;21566;-70
2020/12/11 01:19:42;;;;;;;26.10;15.23;;;;;;;1.23;93.20;100245.22;1751187;80;21582;-70
2020/12/11 01:22:11;;;;;;;25.97;16.30;;;;;;;1.24;93.19;100239.42;1766321;81;21162;-69
2020/12/11 01:24:39;;;;;;;24.03;14.93;;;;;;;1.29;93.25;100231.77;1768031;80;21586;-70
2020/12/11 01:27:07;;;;;;;29.30;15.87;;;;;;;1.28;92.91;100236.73;1743485;80;21657;-70
2020/12/11 01:29:34;;;;;;;27.97;17.37;;;;;;;1.26;92.79;100239.55;1737790;82;21204;-69
2020/12/11 01:32:02;;;;;;;31.33;15.93;;;;;;;1.26;92.77;100236.08;1737834;81;21129;-69
2020/12/11 01:34:30;;;;;;;21.90;13.23;;;;;;;1.23;92.70;100237.77;1737869;82;21216;-68
2020/12/11 01:37:03;;;;;;;18.73;13.17;;;;;;;1.27;92.78;100253.63;1737965;82;21660;-68
2020/12/11 01:39:31;;;;;;;24.70;13.45;;;;;;;1.26;92.53;100237.41;1738183;82;21141;-68
2020/12/11 01:41:59;;;;;;;26.27;18.33;;;;;;;1.27;92.26;100237.73;1738569;81;21205;-69
2020/12/11 01:44:27;;;;;;;18.57;9.90;;;;;;;1.26;92.08;100234.25;1738041;82;21582;-69
2020/12/11 01:46:57;;;;;;;24.27;14.33;;;;;;;1.26;91.76;100246.67;1740391;81;21049;-68
2020/12/11 01:49:24;;;;;;;27.73;13.37;;;;;;;1.26;91.62;100244.02;1759094;80;21199;-70
2020/12/11 01:51:53;;;;;;;21.67;11.70;;;;;;;1.33;91.72;100241.50;1708172;82;21101;-69
2020/12/11 01:54:21;;;;;;;18.60;11.17;;;;;;;1.37;91.33;100237.50;1701523;82;21402;-70
2020/12/11 01:57:05;;;;;;;21.33;13.97;;;;;;;1.36;91.02;100235.84;1733529;82;21140;-70
2020/12/11 01:59:39;;;;;;;26.33;15.17;;;;;;;1.29;90.74;100235.25;1742035;80;21124;-71
2020/12/11 02:02:08;;;;;;;28.07;15.87;;;;;;;1.26;90.68;100232.93;1780117;80;21161;-69
2020/12/11 02:04:38;;;;;;;23.20;13.13;;;;;;;1.25;90.84;100234.42;1760062;81;21607;-69
2020/12/11 02:07:06;;;;;;;20.77;12.80;;;;;;;1.23;90.80;100222.70;1758600;81;21619;-71
2020/12/11 02:09:34;;;;;;;34.50;16.50;;;;;;;1.27;90.86;100219.19;1745295;81;21773;-70
2020/12/11 02:12:03;;;;;;;25.23;14.93;;;;;;;1.27;90.72;100223.16;1740210;81;21098;-70
2020/12/11 02:14:30;;;;;;;22.77;15.30;;;;;;;1.29;90.82;100227.30;1749188;82;22290;-69
2020/12/11 02:17:01;;;;;;;22.67;12.87;;;;;;;1.24;90.72;100221.70;1744994;82;21612;-69
2020/12/11 02:19:33;;;;;;;22.73;14.57;;;;;;;1.24;90.76;100212.43;1749947;80;21637;-68
2020/12/11 02:22:03;;;;;;;28.30;15.85;;;;;;;1.15;90.77;100219.28;1729923;81;21141;-71
2020/12/11 02:24:32;;;;;;;27.63;15.77;;;;;;;1.10;90.98;100222.96;1759673;81;21587;-78
2020/12/11 02:27:00;;;;;;;25.20;14.83;;;;;;;1.08;91.14;100226.27;1779704;80;21106;-69
2020/12/11 02:29:28;;;;;;;20.50;13.40;;;;;;;1.07;91.17;100221.47;1779746;80;21243;-69
2020/12/11 02:31:55;;;;;;;23.57;14.67;;;;;;;1.08;91.28;100227.09;1759609;80;23591;-69
2020/12/11 02:34:23;;;;;;;21.80;13.83;;;;;;;1.05;91.20;100217.36;1749022;81;21121;-70
2020/12/11 02:36:51;;;;;;;23.67;14.70;;;;;;;1.01;91.22;100215.55;1749004;81;21571;-69
2020/12/11 02:39:19;;;;;;;23.50;13.97;;;;;;;1.05;91.29;100213.39;1770778;80;21181;-69
2020/12/11 02:41:48;;;;;;;19.60;13.10;;;;;;;1.10;91.27;100208.39;1769025;80;21231;-70
2020/12/11 02:44:15;;;;;;;22.50;12.67;;;;;;;1.09;90.83;100214.69;1780137;80;22261;-69
2020/12/11 02:46:43;;;;;;;20.87;13.77;;;;;;;1.03;90.77;100206.11;1779900;80;21035;-68
2020/12/11 02:49:11;;;;;;;27.57;15.43;;;;;;;1.03;90.79;100221.50;1753187;80;21578;-72
2020/12/11 02:51:38;;;;;;;24.87;14.17;;;;;;;1.04;90.90;100220.51;1748997;82;21109;-68
2020/12/11 02:54:06;;;;;;;19.10;13.23;;;;;;;1.02;90.84;100217.20;1767429;80;21129;-68
2020/12/11 02:56:34;;;;;;;24.53;15.83;;;;;;;1.03;90.87;100220.67;1777598;80;22312;-68
2020/12/11 02:59:02;;;;;;;23.03;14.33;;;;;;;1.00;90.91;100223.69;1767085;80;21994;-70
2020/12/11 03:01:29;;;;;;;27.07;15.27;;;;;;;0.98;90.99;100221.20;1765505;81;21133;-70
2020/12/11 03:03:58;;;;;;;31.07;15.70;;;;;;;0.98;90.83;100223.84;1765318;81;21141;-69
2020/12/11 03:06:31;;;;;;;24.67;13.50;;;;;;;1.01;90.68;100227.98;1763154;81;21122;-68
2020/12/11 03:08:59;;;;;;;23.17;13.83;;;;;;;1.02;90.50;100222.49;1735086;82;21284;-69
2020/12/11 03:11:27;;;;;;;21.33;12.80;;;;;;;1.06;90.53;100226.44;1734996;82;21603;-69
2020/12/11 03:13:55;;;;;;;19.70;12.57;;;;;;;1.06;90.34;100218.98;1735013;82;21019;-69
2020/12/11 03:16:22;;;;;;;24.57;15.33;;;;;;;1.09;90.34;100232.73;1757874;81;21763;-70
2020/12/11 03:18:51;;;;;;;13.17;10.50;;;;;;;1.11;90.24;100234.69;1765425;81;21110;-70
2020/12/11 03:21:19;;;;;;;24.00;13.17;;;;;;;1.07;90.08;100233.89;1765404;81;23722;-69
2020/12/11 03:23:46;;;;;;;26.17;14.97;;;;;;;0.99;89.40;100229.48;1765340;81;21034;-70
2020/12/11 03:26:16;;;;;;;23.80;13.77;;;;;;;0.96;89.33;100236.42;1756552;81;21161;-71
2020/12/11 03:28:43;;;;;;;25.53;13.80;;;;;;;0.95;89.35;100232.65;1765150;80;21184;-68
2020/12/11 03:31:11;;;;;;;26.63;14.30;;;;;;;0.94;89.32;100227.02;1765468;81;21133;-69
2020/12/11 03:33:39;;;;;;;20.90;12.50;;;;;;;0.94;89.22;100231.82;1765321;81;21208;-69
2020/12/11 03:36:06;;;;;;;19.03;13.50;;;;;;;0.98;89.23;100230.97;1760362;81;21034;-67
2020/12/11 03:38:34;;;;;;;19.23;12.93;;;;;;;1.00;89.19;100231.13;1735152;81;21043;-68
2020/12/11 03:41:01;;;;;;;14.97;10.70;;;;;;;1.03;89.17;100224.15;1735563;81;21654;-68
2020/12/11 03:43:29;;;;;;;21.97;13.87;;;;;;;0.95;88.90;100230.83;1734953;82;21137;-71
2020/12/11 03:45:56;;;;;;;18.57;13.40;;;;;;;0.95;88.91;100219.41;1735950;81;21567;-70
2020/12/11 03:48:25;;;;;;;20.77;11.53;;;;;;;0.95;88.94;100224.70;1748800;81;21580;-76
2020/12/11 03:50:53;;;;;;;23.43;13.80;;;;;;;0.93;88.51;100213.45;1735145;81;21113;-71
2020/12/11 03:53:21;;;;;;;25.37;13.67;;;;;;;0.87;88.59;100222.91;1735011;82;21577;-69
2020/12/11 03:55:49;;;;;;;23.77;14.07;;;;;;;0.90;88.78;100229.20;1735851;81;21643;-69
2020/12/11 03:58:16;;;;;;;24.93;13.77;;;;;;;0.95;88.76;100226.86;1711501;81;21283;-68
2020/12/11 04:00:44;;;;;;;22.00;14.67;;;;;;;0.97;88.56;100225.34;1738602;81;21632;-68
2020/12/11 04:03:12;;;;;;;18.20;12.37;;;;;;;0.96;88.37;100234.30;1734854;82;21113;-69
2020/12/11 04:05:39;;;;;;;30.30;14.20;;;;;;;0.93;88.38;100237.28;1736011;81;21176;-68
2020/12/11 04:08:08;;;;;;;20.80;12.97;;;;;;;0.83;88.53;100235.68;1759123;81;21149;-70
2020/12/11 04:10:36;;;;;;;21.87;13.57;;;;;;;0.82;88.66;100231.38;1765109;80;21213;-69
2020/12/11 04:13:03;;;;;;;25.70;12.87;;;;;;;0.84;88.63;100236.52;1765277;81;21150;-69
2020/12/11 04:15:31;;;;;;;23.83;14.23;;;;;;;0.82;88.80;100242.47;1762830;81;21046;-72
2020/12/11 04:17:58;;;;;;;25.93;14.03;;;;;;;0.75;88.99;100235.73;1747786;81;21649;-68
2020/12/11 04:20:26;;;;;;;27.93;16.57;;;;;;;0.68;89.12;100240.05;1753544;81;21176;-67
2020/12/11 04:22:54;;;;;;;30.53;14.23;;;;;;;0.66;89.07;100241.23;1760118;81;23529;-67
2020/12/11 04:25:22;;;;;;;27.37;15.00;;;;;;;0.70;89.16;100245.19;1759051;81;21173;-67
2020/12/11 04:27:50;;;;;;;16.10;10.90;;;;;;;0.77;89.27;100243.48;1765328;81;21019;-68
2020/12/11 04:30:18;;;;;;;23.70;14.80;;;;;;;0.85;89.11;100244.28;1765378;81;21618;-67
2020/12/11 04:32:46;;;;;;;25.40;16.13;;;;;;;0.82;88.58;100245.11;1763180;81;21157;-67
2020/12/11 04:35:13;;;;;;;26.57;15.03;;;;;;;0.80;88.51;100241.34;1742103;81;21220;-68
2020/12/11 04:37:43;;;;;;;21.80;14.70;;;;;;;0.77;88.54;100248.28;1734935;82;21195;-67
2020/12/11 04:40:10;;;;;;;22.67;14.53;;;;;;;0.73;88.49;100249.63;1734948;82;21208;-66
2020/12/11 04:42:38;;;;;;;29.43;16.37;;;;;;;0.70;88.62;100243.37;1736158;81;21133;-67
2020/12/11 04:45:07;;;;;;;35.50;18.10;;;;;;;0.68;89.04;100249.81;1755157;81;21510;-74
2020/12/11 04:47:34;;;;;;;39.27;21.23;;;;;;;0.65;89.39;100246.20;1764982;81;21562;-68
2020/12/11 04:50:02;;;;;;;28.50;18.03;;;;;;;0.63;89.52;100246.36;1756716;81;21130;-68
2020/12/11 04:52:30;;;;;;;36.83;20.30;;;;;;;0.66;89.80;100255.80;1764422;80;21146;-66
2020/12/11 04:55:00;;;;;;;42.00;20.37;;;;;;;0.65;89.62;100248.84;1748947;81;21212;-66
2020/12/11 04:57:27;;;;;;;36.47;20.73;;;;;;;0.64;89.52;100249.84;1754683;80;21144;-66
2020/12/11 04:59:55;;;;;;;32.47;17.10;;;;;;;0.64;89.46;100255.13;1727633;81;21210;-68
2020/12/11 05:02:22;;;;;;;30.40;16.03;;;;;;;0.63;89.21;100253.47;1754387;81;21607;-69
2020/12/11 05:04:53;;;;;;;34.67;19.00;;;;;;;0.62;89.00;100259.79;1754891;81;21277;-77
2020/12/11 05:07:21;;;;;;;35.87;19.37;;;;;;;0.60;89.04;100270.53;1753650;81;20983;-67
2020/12/11 05:09:57;;;;;;;32.07;16.70;;;;;;;0.60;88.97;100263.92;1765636;81;21149;-67
2020/12/11 05:12:25;;;;;;;26.13;14.00;;;;;;;0.60;89.00;100267.89;1765581;80;22110;-66
2020/12/11 05:14:59;;;;;;;30.37;17.60;;;;;;;0.55;88.55;100270.22;1765061;81;21647;-67
2020/12/11 05:17:32;;;;;;;33.30;18.33;;;;;;;0.52;88.37;100263.96;1765441;81;21153;-68
2020/12/11 05:20:00;;;;;;;;;;;;;;;0.49;88.31;100264.77;1740473;81;21001;-68
2020/12/11 05:22:33;;;;;;;37.63;16.80;;;;;;;0.45;88.21;100270.91;1739793;81;20588;-68
2020/12/11 05:25:01;;;;;;;32.23;18.50;;;;;;;0.40;88.03;100267.95;1765283;81;21376;-68
2020/12/11 05:27:43;;;;;;;34.67;16.60;;;;;;;0.31;87.54;100276.42;1765549;81;21591;-70
2020/12/11 05:30:16;;;;;;;26.77;15.17;;;;;;;0.28;87.30;100271.97;1765485;81;21165;-68
2020/12/11 05:32:53;;;;;;;31.25;17.73;;;;;;;0.23;86.87;100279.09;1765505;80;21126;-68
2020/12/11 05:35:25;;;;;;;27.90;14.27;;;;;;;0.19;86.77;100280.92;1738204;80;21096;-67
2020/12/11 05:38:05;;;;;;;30.83;18.40;;;;;;;0.12;86.59;100272.82;1735055;82;21377;-67
2020/12/11 05:40:40;;;;;;;22.47;15.03;;;;;;;0.01;86.47;100279.77;1735045;82;21037;-67
2020/12/11 05:43:18;;;;;;;34.67;16.77;;;;;;;0.00;86.68;100290.05;1735250;82;21584;-66
2020/12/11 05:45:50;;;;;;;31.30;15.93;;;;;;;-0.04;86.63;100288.20;1738969;81;21723;-67
2020/12/11 05:48:24;;;;;;;32.85;18.12;;;;;;;-0.07;86.60;100287.72;1765720;81;22237;-66
2020/12/11 05:50:52;;;;;;;28.73;14.87;;;;;;;-0.07;86.71;100287.23;1765664;81;21379;-66
2020/12/11 05:53:20;;;;;;;26.40;14.63;;;;;;;-0.06;86.66;100288.89;1765267;81;21578;-69
2020/12/11 05:55:48;;;;;;;32.53;16.83;;;;;;;-0.07;86.71;100294.33;1764679;81;21615;-66
2020/12/11 05:58:16;;;;;;;25.00;15.47;;;;;;;-0.05;86.96;100297.65;1765304;80;21705;-66
2020/12/11 06:00:46;;;;;;;25.60;15.67;;;;;;;-0.04;87.10;100292.17;1764574;80;21262;-68
2020/12/11 06:03:14;;;;;;;28.27;16.93;;;;;;;-0.03;86.86;100289.87;1765095;81;22281;-68
2020/12/11 06:05:42;;;;;;;28.17;16.23;;;;;;;-0.08;85.93;100292.67;1765374;81;21146;-66
2020/12/11 06:08:11;;;;;;;27.47;15.53;;;;;;;-0.14;85.71;100302.09;1765392;81;20979;-65
2020/12/11 06:10:40;;;;;;;32.67;19.17;;;;;;;-0.18;85.34;100309.20;1764511;81;21129;-66
2020/12/11 06:13:10;;;;;;;46.30;25.30;;;;;;;-0.17;85.50;100306.89;1754053;81;21171;-66
2020/12/11 06:15:43;;;;;;;32.87;21.27;;;;;;;-0.17;85.49;100306.40;1735268;81;21604;-67
2020/12/11 06:18:19;;;;;;;28.52;18.50;;;;;;;-0.20;85.47;100306.73;1706224;82;21001;-67
2020/12/11 06:20:48;;;;;;;23.70;13.50;;;;;;;-0.25;85.56;100306.90;1737716;81;21029;-65
2020/12/11 06:23:29;;;;;;;30.03;17.47;;;;;;;-0.31;85.63;100307.06;1735123;82;21609;-66
2020/12/11 06:26:01;;;;;;;35.47;20.17;;;;;;;-0.34;85.71;100301.28;1765140;81;21527;-67
2020/12/11 06:28:53;;;;;;;30.30;19.93;;;;;;;-0.34;85.85;100307.40;1765447;81;21382;-65
2020/12/11 06:31:25;;;;;;;23.73;16.27;;;;;;;-0.40;85.75;100304.58;1769340;80;21132;-66
2020/12/11 06:33:55;;;;;;;29.90;17.37;;;;;;;-0.40;85.51;100307.22;1747808;81;21590;-65
2020/12/11 06:36:24;;;;;;;32.67;18.30;;;;;;;-0.41;85.23;100306.39;1748028;81;21548;-67
2020/12/11 06:38:56;;;;;;;26.37;16.60;;;;;;;-0.40;85.12;100303.25;1738611;82;21585;-65
2020/12/11 06:41:33;;;;;;;26.65;15.30;;;;;;;-0.47;85.21;100307.86;1751091;81;22139;-67
2020/12/11 06:44:14;;;;;;;23.30;15.20;;;;;;;-0.52;85.38;100301.41;1767803;81;21858;-66
2020/12/11 06:46:43;;;;;;;26.50;17.27;;;;;;;-0.57;85.19;100307.19;1765376;81;21150;-66
2020/12/11 06:52:05;;;;;;;30.80;17.43;;;;;;;-0.56;85.00;100302.24;1846219;76;27211;-69
2020/12/11 06:54:38;;;;;;;26.60;15.77;;;;;;;-0.55;85.08;100303.91;1799576;79;20968;-67
2020/12/11 06:57:05;;;;;;;27.93;15.58;;;;;;;-0.48;84.45;100298.80;1797398;79;21361;-66
2020/12/11 06:59:37;;;;;;;33.20;18.97;;;;;;;-0.48;84.31;100296.16;1784952;80;21578;-67
2020/12/11 07:02:15;;;;;;;24.17;15.73;;;;;;;-0.53;83.77;100296.62;1786819;77;21046;-68
2020/12/11 07:04:44;;;;;;;26.97;15.83;;;;;;;-0.58;83.56;100290.20;1784877;80;21606;-65
2020/12/11 07:07:12;;;;;;;26.20;14.10;;;;;;;-0.54;83.81;100293.67;1786200;79;21579;-65
2020/12/11 07:09:46;;;;;;;30.40;16.77;;;;;;;-0.57;83.52;100293.16;1784951;80;21297;-67
2020/12/11 07:12:16;;;;;;;28.95;18.40;;;;;;;-0.63;83.91;100285.41;1761600;80;21162;-64
2020/12/11 07:14:47;;;;;;;29.30;18.47;;;;;;;-0.66;84.08;100282.25;1765345;79;20995;-66
2020/12/11 07:17:29;;;;;;;39.20;20.53;;;;;;;-0.73;83.62;100275.49;1784736;80;21180;-65
2020/12/11 07:19:56;;;;;;;32.53;17.80;;;;;;;-0.77;83.58;100282.09;1783404;79;21162;-65
2020/12/11 07:22:24;;;;;;;30.83;17.77;;;;;;;-0.73;83.97;100276.81;1781868;80;21206;-66
2020/12/11 07:24:53;;;;;;;23.13;12.90;;;;;;;-0.75;83.83;100283.23;1769424;80;21178;-66
2020/12/11 07:27:20;;;;;;;34.47;18.47;;;;;;;-0.79;83.52;100277.45;1748067;82;21024;-65
2020/12/11 07:29:50;;;;;;;30.67;19.40;;;;;;;-0.82;83.64;100270.36;1783307;80;21006;-73
2020/12/11 07:32:19;;;;;;;30.20;17.83;;;;;;;-0.84;83.62;100273.64;1783975;79;21161;-65
2020/12/11 07:34:48;;;;;;;31.90;18.47;;;;;;;-0.84;83.57;100267.87;1784937;80;21463;-65
2020/12/11 07:37:16;;;;;;;31.43;18.70;;;;;;;-0.93;83.43;100278.91;1784591;80;21055;-66
2020/12/11 07:39:44;;;;;;;32.30;19.00;;;;;;;-0.99;83.48;100270.31;1778977;80;21143;-68
2020/12/11 07:42:11;;;;;;;36.00;25.03;;;;;;;-0.97;83.82;100276.76;1765328;80;21007;-66
2020/12/11 07:44:39;;;;;;;38.47;19.73;;;;;;;-0.90;84.14;100270.66;1785043;80;21113;-66
2020/12/11 07:47:11;;;;;;;37.60;21.80;;;;;;;-0.84;84.32;100265.72;1784902;80;21400;-69
2020/12/11 07:49:45;;;;;;;31.30;20.37;;;;;;;-0.81;84.42;100266.21;1748061;80;21609;-74
2020/12/11 07:52:21;;;;;;;26.43;16.20;;;;;;;-0.85;84.31;100271.49;1751697;81;21183;-65
2020/12/11 07:54:44;;;;;;;30.83;16.53;;;;;;;-0.84;84.31;100274.47;1751595;81;21058;-69
2020/12/11 07:57:20;;;;;;;31.27;19.47;;;;;;;-0.82;84.09;100276.95;1750378;82;21561;-64
2020/12/11 07:59:59;;;;;;;33.53;20.00;;;;;;;-0.85;84.34;100262.25;1750598;81;21368;-65
2020/12/11 08:02:28;;;;;;;29.90;18.73;;;;;;;-0.84;84.38;100269.19;1731085;82;21159;-64
2020/12/11 08:04:56;;;;;;;38.13;16.00;;;;;;;-0.85;84.20;100268.85;1784369;80;21114;-65
2020/12/11 08:07:26;;;;;;;21.07;14.20;;;;;;;-0.87;84.29;100270.84;1784719;80;21574;-66
2020/12/11 08:09:56;;;;;;;30.93;17.23;;;;;;;-0.93;84.11;100266.20;1784451;80;21587;-63
2020/12/11 08:12:27;;;;;;;29.30;18.50;;;;;;;-0.93;84.24;100269.67;1750588;80;21379;-65
2020/12/11 08:14:55;;;;;;;33.70;18.43;;;;;;;-0.86;84.40;100272.47;1783447;80;21169;-65
2020/12/11 08:17:23;;;;;;;32.97;19.20;;;;;;;-0.91;84.44;100275.59;1784367;80;20999;-64
2020/12/11 08:20:07;;;;;;;35.03;21.03;;;;;;;-0.90;84.51;100270.66;1782619;80;21613;-68
2020/12/11 08:22:40;;;;;;;30.67;18.67;;;;;;;-0.85;83.97;100268.02;1783616;80;21153;-66
2020/12/11 08:25:21;;;;;;;38.42;24.87;;;;;;;-0.86;83.61;100279.07;1782800;80;21586;-66
2020/12/11 08:27:51;;;;;;;32.23;21.17;;;;;;;-0.84;84.07;100278.43;1766503;80;21587;-65
2020/12/11 08:30:22;;;;;;;39.33;21.53;;;;;;;-0.83;83.98;100270.84;1752617;81;21173;-65
2020/12/11 08:32:50;;;;;;;39.73;20.97;;;;;;;-0.84;83.91;100273.15;1780867;80;21110;-75
2020/12/11 08:35:20;;;;;;;33.20;19.87;;;;;;;-0.84;84.13;100268.36;1783970;80;21170;-67
2020/12/11 08:37:53;;;;;;;32.67;17.70;;;;;;;-0.82;84.16;100264.59;1781712;80;21365;-65
2020/12/11 08:40:21;;;;;;;27.97;16.43;;;;;;;-0.81;83.65;100266.21;1749765;82;21124;-67
2020/12/11 08:51:32;;;;;;;33.93;20.30;;;;;;;-0.83;83.59;100253.69;1881556;74;26483;-68
2020/12/11 08:54:02;;;;;;;28.80;16.10;;;;;;;-0.91;83.57;100259.76;1884092;75;20991;-65
2020/12/11 08:56:32;;;;;;;27.67;16.00;;;;;;;-0.92;83.86;100263.90;1865594;75;21357;-65
2020/12/11 08:59:00;;;;;;;40.13;21.27;;;;;;;-0.92;83.92;100259.94;1842399;75;20984;-65
2020/12/11 09:01:27;;;;;;;34.13;18.77;;;;;;;-0.93;84.00;100254.32;1827068;77;20971;-66
2020/12/11 09:03:57;;;;;;;33.97;20.63;;;;;;;-0.86;83.78;100252.67;1842631;77;21031;-67
2020/12/11 09:06:24;;;;;;;31.17;19.20;;;;;;;-0.94;83.55;100248.70;1845638;77;20991;-65
2020/12/11 09:08:52;;;;;;;25.10;17.07;;;;;;;-0.99;83.34;100247.04;1863429;77;21325;-65
2020/12/11 09:11:19;;;;;;;26.00;19.47;;;;;;;-0.96;83.41;100250.17;1819486;77;21579;-64
2020/12/11 09:13:49;;;;;;;22.30;14.83;;;;;;;-0.95;83.09;100245.73;1818593;78;21329;-66
2020/12/11 09:16:16;;;;;;;32.67;16.77;;;;;;;-0.96;82.95;100248.86;1818474;78;21192;-64
2020/12/11 09:18:45;;;;;;;39.50;21.43;;;;;;;-0.92;83.13;100244.10;1818578;78;21547;-65
2020/12/11 09:21:13;;;;;;;34.53;17.67;;;;;;;-0.98;83.35;100235.02;1818974;78;22412;-64
2020/12/11 09:23:41;;;;;;;36.00;21.63;;;;;;;-0.96;83.44;100246.73;1819659;78;21177;-72
2020/12/11 09:26:09;;;;;;;28.67;18.43;;;;;;;-1.00;83.62;100235.66;1812691;77;21133;-66
2020/12/11 09:28:37;;;;;;;30.97;19.57;;;;;;;-1.01;84.00;100244.55;1791529;78;21037;-65
2020/12/11 09:31:05;;;;;;;34.23;18.97;;;;;;;-1.04;84.05;100242.25;1826332;78;21161;-62
2020/12/11 09:33:39;;;;;;;28.90;17.20;;;;;;;-1.06;84.14;100249.52;1798228;77;21347;-64
2020/12/11 09:36:05;;;;;;;37.67;19.27;;;;;;;-1.06;84.10;100246.05;1789841;79;21078;-66
2020/12/11 09:38:33;;;;;;;27.07;16.10;;;;;;;-1.03;84.10;100237.80;1813470;78;21526;-65
2020/12/11 09:41:03;;;;;;;22.00;15.53;;;;;;;-1.01;83.43;100235.31;1839798;77;21045;-65
2020/12/11 09:44:03;;;;;;;22.97;16.00;;;;;;;-1.04;83.09;100234.33;1863507;77;21193;-64
2020/12/11 09:46:27;;;;;;;26.93;17.27;;;;;;;-1.06;83.36;100227.58;1836551;77;21803;-66
2020/12/11 09:52:30;;;;;;;28.83;17.23;;;;;;;-1.11;82.71;100222.78;1846421;76;26493;-67
2020/12/11 09:54:16;;;;;;;35.10;18.73;;;;;;;-1.22;83.13;100225.72;1767638;79;20983;-67
2020/12/11 09:56:41;;;;;;;30.90;17.00;;;;;;;-1.25;83.57;100216.81;1784938;79;21546;-66
2020/12/11 09:59:16;;;;;;;27.20;16.57;;;;;;;-1.24;83.87;100221.08;1797583;79;20994;-67
2020/12/11 10:04:13;;;;;;;32.23;16.87;;;;;;;-1.26;83.74;100209.05;1782912;80;20982;-66
2020/12/11 10:06:41;;;;;;;34.03;19.77;;;;;;;-1.19;83.68;100210.04;1784266;80;20971;-67
2020/12/11 10:09:09;;;;;;;34.30;18.47;;;;;;;-1.21;83.59;100204.95;1781535;80;22301;-67
2020/12/11 10:11:36;;;;;;;39.17;18.60;;;;;;;-1.21;84.02;100206.75;1784290;80;21391;-65
2020/12/11 10:16:44;;;;;;;32.80;19.57;;;;;;;-1.11;83.91;100192.44;1847173;75;27109;-64
2020/12/11 10:19:12;;;;;;;27.90;17.10;;;;;;;-1.14;83.84;100205.11;1793639;79;20987;-64
2020/12/11 10:21:40;;;;;;;31.67;17.90;;;;;;;-1.09;84.04;100194.40;1809586;77;21467;-63
2020/12/11 10:24:08;;;;;;;25.43;16.07;;;;;;;-1.10;83.94;100187.95;1816581;79;20998;-63
2020/12/11 10:26:40;;;;;;;19.00;12.27;;;;;;;-1.14;83.13;100191.42;1807082;79;21034;-64
2020/12/11 10:29:09;;;;;;;21.35;14.33;;;;;;;-1.18;82.77;100190.09;1785287;79;21611;-63
2020/12/11 10:31:41;;;;;;;31.93;17.00;;;;;;;-1.23;82.86;100186.28;1785190;79;20935;-63
2020/12/11 10:34:06;;;;;;;34.53;22.83;;;;;;;-1.26;83.11;100192.73;1784737;80;21204;-64
2020/12/11 10:36:34;;;;;;;33.97;19.27;;;;;;;-1.26;83.42;100185.30;1785499;79;21045;-64
2020/12/11 10:39:03;;;;;;;26.77;17.23;;;;;;;-1.22;83.47;100186.63;1784946;80;20983;-66
2020/12/11 10:41:30;;;;;;;37.33;18.17;;;;;;;-1.24;83.08;100181.50;1785874;79;21113;-65
2020/12/11 10:43:58;;;;;;;32.37;17.73;;;;;;;-1.28;83.22;100188.58;1791079;79;21195;-67
2020/12/11 10:46:25;;;;;;;29.83;17.63;;;;;;;-1.27;83.23;100181.00;1796769;79;21235;-65
2020/12/11 10:48:53;;;;;;;18.10;12.73;;;;;;;-1.26;83.18;100170.79;1815293;79;21572;-65
2020/12/11 10:51:21;;;;;;;35.73;19.87;;;;;;;-1.33;83.15;100167.96;1743803;82;21555;-68
2020/12/11 10:53:49;;;;;;;26.90;16.93;;;;;;;-1.39;83.21;100179.19;1759377;81;21059;-66
2020/12/11 10:56:19;;;;;;;24.87;13.63;;;;;;;-1.46;83.04;100176.34;1766322;81;21669;-66
2020/12/11 10:58:47;;;;;;;31.90;15.93;;;;;;;-1.48;83.63;100173.03;1803564;78;21620;-66
2020/12/11 11:01:15;;;;;;;31.20;17.33;;;;;;;-1.51;83.51;100171.22;1775756;80;21155;-68
2020/12/11 11:03:44;;;;;;;27.10;18.60;;;;;;;-1.47;83.52;100169.41;1735523;82;21154;-75
2020/12/11 11:06:21;;;;;;;34.70;22.47;;;;;;;-1.40;83.28;100173.08;1750987;81;21006;-64
2020/12/11 11:11:27;;;;;;;31.67;20.27;;;;;;;-1.28;83.58;100180.17;1732932;82;21574;-63
2020/12/11 11:16:48;;;;;;;30.50;19.87;;;;;;;-1.36;83.90;100176.21;1766348;80;21061;-63
2020/12/11 11:19:07;;;;;;;32.27;19.90;;;;;;;-1.39;84.03;100176.02;1743978;82;21144;-64
2020/12/11 11:21:50;;;;;;;30.30;19.20;;;;;;;-1.44;84.08;100178.84;1757495;80;21184;-63
2020/12/11 11:29:09;;;;;;;28.13;15.13;;;;;;;-1.50;83.55;100171.56;1817042;78;21571;-63
2020/12/11 11:31:37;;;;;;;25.70;16.47;;;;;;;-1.57;83.87;100175.80;1815889;79;21314;-62
2020/12/11 11:34:05;;;;;;;25.13;16.87;;;;;;;-1.60;83.99;100170.38;1817123;79;21567;-63
2020/12/11 11:36:34;;;;;;;31.70;16.37;;;;;;;-1.62;83.87;100178.92;1817157;79;20995;-63
2020/12/11 11:39:01;;;;;;;31.73;17.77;;;;;;;-1.60;84.03;100172.18;1787102;79;21606;-65
2020/12/11 11:46:50;;;;;;;26.87;16.00;;;;;;;-1.69;84.12;100172.66;1811910;79;20964;-63
2020/12/11 11:54:29;;;;;;;29.33;19.30;;;;;;;-1.74;84.08;100164.88;1782262;80;21559;-64
2020/12/11 11:56:58;;;;;;;37.60;21.27;;;;;;;-1.78;84.09;100178.39;1828104;77;21086;-66
2020/12/11 11:59:27;;;;;;;32.13;20.23;;;;;;;-1.82;84.47;100163.02;1826146;78;21075;-66
2020/12/11 12:01:55;;;;;;;37.60;20.13;;;;;;;-1.81;84.87;100167.31;1830785;78;20924;-64
2020/12/11 12:04:23;;;;;;;22.00;13.90;;;;;;;-1.84;84.66;100165.84;1826594;78;20982;-66